createdAt,value
2023-03-13T00:00:25.032Z,3.95
2023-03-13T00:04:31.926Z,3.20
2023-03-13T00:08:37.546Z,2.80
2023-03-13T00:12:39.670Z,2.45
2023-03-13T00:16:41.972Z,2.92
2023-03-13T00:20:44.182Z,3.08
2023-03-13T00:24:48.050Z,3.13
2023-03-13T00:28:51.051Z,2.95
2023-03-13T00:32:53.148Z,2.95
2023-03-13T00:36:56.121Z,2.85
2023-03-13T00:41:08.018Z,3.35
2023-03-13T00:45:12.728Z,2.72
2023-03-13T00:49:15.063Z,3.65
2023-03-13T00:53:17.517Z,3.28
2023-03-13T00:57:19.681Z,3.95
2023-03-13T01:01:23.161Z,3.33
2023-03-13T01:05:25.458Z,3.42
2023-03-13T01:09:27.576Z,3.90
2023-03-13T01:13:31.299Z,3.13
2023-03-13T01:17:33.362Z,2.80
2023-03-13T01:21:35.668Z,3.03
2023-03-13T01:25:38.448Z,3.28
2023-03-13T01:29:40.728Z,3.72
2023-03-13T01:33:42.954Z,3.90
2023-03-13T01:37:45.114Z,4.32
2023-03-13T01:41:47.764Z,3.78
2023-03-13T01:45:59.345Z,4.50
2023-03-13T01:50:05.553Z,3.95
2023-03-13T01:54:30.573Z,4.40
2023-03-13T01:58:33.052Z,4.40
2023-03-13T02:02:43.608Z,3.80
2023-03-13T02:06:57.251Z,3.53
2023-03-13T02:11:24.006Z,4.20
2023-03-13T02:15:28.401Z,4.53
2023-03-13T02:19:49.336Z,3.72
2023-03-13T02:24:01.943Z,4.35
2023-03-13T02:28:06.889Z,3.88
2023-03-13T02:32:11.669Z,3.80
2023-03-13T02:36:16.693Z,3.80
2023-03-13T02:40:26.606Z,3.63
2023-03-13T02:44:29.737Z,3.45
2023-03-13T02:48:38.140Z,3.38
2023-03-13T02:52:45.739Z,3.35
2023-03-13T02:56:54.704Z,3.03
2023-03-13T03:00:56.917Z,3.00
2023-03-13T03:04:59.136Z,3.10
2023-03-13T03:09:01.617Z,3.83
2023-03-13T03:17:08.278Z,3.67
2023-03-13T03:21:10.414Z,3.70
2023-03-13T03:25:14.718Z,3.50
2023-03-13T03:29:16.938Z,3.67
2023-03-13T03:33:23.908Z,3.05
2023-03-13T03:37:26.431Z,3.55
2023-03-13T03:41:28.976Z,3.50
2023-03-13T03:45:31.670Z,3.30
2023-03-13T03:49:33.742Z,2.55
2023-03-13T03:53:36.195Z,3.53
2023-03-13T03:57:38.583Z,3.13
2023-03-13T04:01:44.950Z,3.58
2023-03-13T04:05:48.378Z,3.95
2023-03-13T04:09:50.872Z,3.47
2023-03-13T04:14:15.777Z,3.28
2023-03-13T04:18:18.580Z,3.20
2023-03-13T04:22:21.252Z,3.80
2023-03-13T04:26:28.091Z,3.30
2023-03-13T04:30:32.642Z,3.15
2023-03-13T04:34:52.138Z,3.03
2023-03-13T04:39:25.459Z,3.00
2023-03-13T04:43:30.000Z,3.08
2023-03-13T04:47:42.020Z,3.97
2023-03-13T04:52:11.064Z,2.80
2023-03-13T04:56:42.286Z,4.93
2023-03-13T05:01:04.048Z,6.60
2023-03-13T05:05:28.377Z,7.60
2023-03-13T05:10:03.131Z,8.95
2023-03-13T05:14:10.778Z,9.32
2023-03-13T05:18:15.918Z,7.18
2023-03-13T05:22:24.409Z,5.80
2023-03-13T05:27:04.938Z,6.18
2023-03-13T05:31:13.227Z,6.38
2023-03-13T05:35:42.908Z,5.63
2023-03-13T05:40:05.895Z,11.25
2023-03-13T05:44:17.688Z,7.03
2023-03-13T05:48:22.645Z,3.97
2023-03-13T05:52:53.907Z,4.05
2023-03-13T05:57:11.420Z,4.07
2023-03-13T06:01:41.250Z,4.28
2023-03-13T06:05:59.343Z,3.92
2023-03-13T06:10:10.776Z,3.65
2023-03-13T06:19:02.352Z,4.38
2023-03-13T06:23:04.379Z,4.65
2023-03-13T06:27:07.700Z,4.72
2023-03-13T06:31:10.947Z,6.53
2023-03-13T06:35:13.068Z,6.15
2023-03-13T06:39:15.058Z,7.53
2023-03-13T06:43:18.108Z,6.72
2023-03-13T06:47:23.329Z,7.47
2023-03-13T06:51:26.417Z,5.93
2023-03-13T06:55:28.429Z,5.57
2023-03-13T06:59:30.775Z,5.88
2023-03-13T07:03:32.978Z,6.15
2023-03-13T07:07:35.399Z,5.22
2023-03-13T07:11:37.777Z,5.15
2023-03-13T07:15:39.750Z,5.30
2023-03-13T07:19:41.824Z,5.38
2023-03-13T07:23:43.948Z,5.20
2023-03-13T07:27:46.158Z,5.40
2023-03-13T07:31:49.364Z,5.80
2023-03-13T07:35:52.462Z,5.47
2023-03-13T07:39:54.750Z,6.57
2023-03-13T07:43:56.761Z,5.97
2023-03-13T07:47:58.822Z,7.47
2023-03-13T07:52:00.800Z,6.18
2023-03-13T07:56:10.064Z,6.68
2023-03-13T08:00:16.608Z,6.13
2023-03-13T08:04:19.301Z,6.47
2023-03-13T08:08:21.415Z,6.00
2023-03-13T08:12:23.503Z,5.47
2023-03-13T08:16:28.171Z,5.20
2023-03-13T08:20:30.335Z,4.63
2023-03-13T08:24:32.386Z,4.78
2023-03-13T08:28:35.583Z,4.45
2023-03-13T08:32:37.650Z,3.90
2023-03-13T08:36:40.424Z,4.85
2023-03-13T08:40:42.520Z,4.75
2023-03-13T08:44:44.983Z,4.40
2023-03-13T08:48:55.325Z,4.38
2023-03-13T08:52:57.385Z,3.72
2023-03-13T08:57:00.166Z,3.78
2023-03-13T09:01:04.625Z,3.53
2023-03-13T09:05:07.461Z,3.28
2023-03-13T09:09:09.910Z,3.88
2023-03-13T09:13:11.909Z,4.10
2023-03-13T09:17:13.972Z,4.70
2023-03-13T09:21:19.685Z,6.97
2023-03-13T09:25:21.778Z,6.45
2023-03-13T09:29:24.035Z,4.80
2023-03-13T09:33:26.284Z,5.22
2023-03-13T09:37:28.402Z,6.35
2023-03-13T09:41:39.454Z,5.80
2023-03-13T09:45:47.084Z,5.20
2023-03-13T09:50:12.095Z,6.53
2023-03-13T09:54:33.976Z,5.68
2023-03-13T09:58:36.258Z,5.43
2023-03-13T10:02:39.801Z,4.72
2023-03-13T10:06:44.961Z,6.55
2023-03-13T10:10:57.846Z,6.32
2023-03-13T10:15:32.848Z,5.47
2023-03-13T10:23:50.890Z,6.07
2023-03-13T10:27:55.037Z,5.70
2023-03-13T10:32:06.167Z,6.38
2023-03-13T10:36:11.816Z,5.72
2023-03-13T10:40:23.172Z,5.55
2023-03-13T10:44:32.169Z,5.90
2023-03-13T10:48:37.842Z,5.00
2023-03-13T10:52:49.084Z,5.10
2023-03-13T10:57:10.281Z,4.70
2023-03-13T11:01:32.151Z,4.38
2023-03-13T11:05:40.225Z,4.43
2023-03-13T11:09:42.487Z,3.50
2023-03-13T11:13:45.618Z,3.33
2023-03-13T11:18:07.690Z,3.05
2023-03-13T11:22:15.822Z,2.50
2023-03-13T11:26:20.824Z,3.53
2023-03-13T11:30:32.801Z,2.85
2023-03-13T11:34:42.825Z,3.00
2023-03-13T11:39:00.503Z,3.13
2023-03-13T11:43:24.482Z,2.80
2023-03-13T11:47:43.838Z,3.17
2023-03-13T11:52:18.497Z,2.97
2023-03-13T11:56:46.722Z,2.90
2023-03-13T12:01:02.285Z,3.45
2023-03-13T12:05:10.366Z,3.95
2023-03-13T12:09:12.923Z,3.22
2023-03-13T12:13:27.550Z,4.00
2023-03-13T12:17:35.018Z,3.63
2023-03-13T12:21:41.406Z,4.35
2023-03-13T12:26:06.374Z,4.00
2023-03-13T12:30:12.063Z,4.53
2023-03-13T12:34:26.240Z,3.30
2023-03-13T12:38:31.318Z,3.55
2023-03-13T12:43:24.333Z,3.05
2023-03-13T12:47:50.638Z,3.13
2023-03-13T12:52:08.105Z,3.08
2023-03-13T12:56:54.825Z,2.85
2023-03-13T13:01:02.445Z,2.92
2023-03-13T13:05:05.131Z,2.65
2023-03-13T13:09:14.808Z,2.53
2023-03-13T13:13:29.190Z,1.90
2023-03-13T13:21:38.126Z,1.38
2023-03-13T13:25:40.341Z,1.67
2023-03-13T13:29:42.353Z,1.23
2023-03-13T13:33:44.503Z,1.98
2023-03-13T13:37:49.502Z,1.40
2023-03-13T13:41:51.904Z,1.35
2023-03-13T13:46:02.646Z,1.10
2023-03-13T13:50:21.400Z,1.08
2023-03-13T13:54:47.573Z,1.95
2023-03-13T13:58:50.066Z,1.55
2023-03-13T14:02:54.320Z,1.40
2023-03-13T14:07:01.942Z,1.52
2023-03-13T14:11:16.746Z,1.35
2023-03-13T14:15:34.544Z,1.65
2023-03-13T14:19:40.112Z,1.73
2023-03-13T14:23:44.636Z,2.50
2023-03-13T14:27:49.254Z,2.08
2023-03-13T14:31:57.826Z,1.80
2023-03-13T14:36:00.101Z,1.80
2023-03-13T14:40:09.865Z,1.92
2023-03-13T14:44:30.838Z,1.30
2023-03-13T14:48:34.236Z,1.88
2023-03-13T14:52:37.589Z,1.80
2023-03-13T14:56:43.693Z,2.57
2023-03-13T15:00:48.463Z,2.08
2023-03-13T15:05:06.595Z,1.88
2023-03-13T15:09:18.930Z,1.35
2023-03-13T15:13:34.731Z,2.00
2023-03-13T15:17:37.702Z,2.05
2023-03-13T15:21:41.285Z,2.35
2023-03-13T15:25:43.415Z,1.30
2023-03-13T15:29:46.666Z,1.33
2023-03-13T15:33:50.713Z,1.40
2023-03-13T15:37:53.001Z,1.90
2023-03-13T15:41:55.090Z,2.20
2023-03-13T15:45:57.471Z,2.58
2023-03-13T15:49:59.765Z,2.15
2023-03-13T15:54:01.806Z,2.88
2023-03-13T15:58:03.856Z,3.08
2023-03-13T16:02:14.646Z,4.20
2023-03-13T16:06:20.677Z,1.63
2023-03-13T16:10:26.165Z,1.30
2023-03-13T16:14:28.216Z,1.38
2023-03-13T16:18:30.450Z,1.40
2023-03-13T16:22:32.679Z,1.77
2023-03-13T16:26:34.802Z,1.85
2023-03-13T16:30:36.948Z,1.65
2023-03-13T16:34:41.629Z,2.00
2023-03-13T16:38:44.229Z,2.50
2023-03-13T16:42:46.691Z,2.70
2023-03-13T16:47:04.486Z,2.30
2023-03-13T16:51:16.151Z,2.78
2023-03-13T16:55:19.742Z,2.00
2023-03-13T16:59:23.324Z,1.90
2023-03-13T17:03:25.431Z,1.58
2023-03-13T17:07:29.346Z,2.22
2023-03-13T17:11:31.423Z,2.08
2023-03-13T17:15:33.475Z,1.73
2023-03-13T17:19:35.712Z,2.13
2023-03-13T17:23:37.932Z,1.50
2023-03-13T17:27:41.461Z,2.08
2023-03-13T17:31:43.544Z,2.53
2023-03-13T17:35:45.880Z,1.85
2023-03-13T17:39:49.405Z,2.55
2023-03-13T17:43:52.187Z,2.73
2023-03-13T17:47:54.660Z,3.47
2023-03-13T17:51:56.703Z,2.72
2023-03-13T17:55:59.010Z,2.58
2023-03-13T18:00:01.107Z,2.20
2023-03-13T18:04:03.680Z,2.05
2023-03-13T18:08:05.814Z,2.10
2023-03-13T18:12:11.587Z,2.30
2023-03-13T18:16:21.167Z,2.80
2023-03-13T18:20:30.821Z,3.00
2023-03-13T18:24:33.999Z,3.22
2023-03-13T18:28:36.079Z,2.10
2023-03-13T18:32:38.199Z,3.00
2023-03-13T18:36:40.412Z,3.13
2023-03-13T18:41:20.104Z,2.72
2023-03-13T18:45:57.584Z,2.90
2023-03-13T18:49:59.754Z,2.95
2023-03-13T18:54:01.882Z,3.55
2023-03-13T18:58:04.087Z,3.05
2023-03-13T19:02:07.669Z,2.88
2023-03-13T19:06:36.929Z,3.13
2023-03-13T19:10:39.088Z,3.05
2023-03-13T19:14:41.465Z,2.60
2023-03-13T19:18:44.934Z,2.42
2023-03-13T19:22:47.376Z,2.23
2023-03-13T19:26:53.658Z,2.63
2023-03-13T19:30:55.876Z,3.50
2023-03-13T19:34:57.946Z,3.63
2023-03-13T19:39:00.530Z,3.72
2023-03-13T19:43:02.608Z,2.53
2023-03-13T19:47:05.542Z,2.83
2023-03-13T19:51:09.270Z,2.95
2023-03-13T19:55:11.853Z,2.55
2023-03-13T19:59:21.293Z,3.10
2023-03-13T20:03:24.159Z,2.70
2023-03-13T20:07:26.343Z,3.22
2023-03-13T20:11:29.731Z,2.90
2023-03-13T20:15:31.792Z,3.15
2023-03-13T20:19:33.868Z,3.13
2023-03-13T20:23:36.735Z,3.85
2023-03-13T20:27:39.449Z,4.13
2023-03-13T20:31:41.696Z,4.85
2023-03-13T20:35:43.768Z,4.95
2023-03-13T20:39:46.171Z,3.72
2023-03-13T20:43:48.493Z,4.82
2023-03-13T20:47:51.138Z,5.32
2023-03-13T20:51:53.446Z,3.70
2023-03-13T20:55:55.573Z,3.58
2023-03-13T20:59:57.930Z,5.07
2023-03-13T21:04:00.265Z,5.60
2023-03-13T21:08:02.325Z,4.38
2023-03-13T21:12:05.060Z,5.45
2023-03-13T21:16:07.860Z,4.22
2023-03-13T21:20:13.972Z,5.63
2023-03-13T21:24:16.617Z,4.82
2023-03-13T21:28:18.804Z,4.78
2023-03-13T21:32:21.576Z,4.82
2023-03-13T21:36:23.698Z,5.15
2023-03-13T21:40:26.116Z,8.07
2023-03-13T21:44:28.246Z,5.05
2023-03-13T21:48:30.398Z,5.32
2023-03-13T21:52:34.416Z,4.90
2023-03-13T21:56:38.974Z,4.45
2023-03-13T22:00:41.132Z,4.63
2023-03-13T22:04:43.421Z,5.75
2023-03-13T22:08:45.597Z,4.85
2023-03-13T22:12:47.762Z,5.68
2023-03-13T22:16:50.089Z,4.50
2023-03-13T22:20:52.182Z,4.40
2023-03-13T22:24:54.454Z,5.30
2023-03-13T22:28:56.631Z,5.38
2023-03-13T22:32:58.915Z,5.65
2023-03-13T22:37:01.135Z,5.90
2023-03-13T22:41:05.131Z,5.28
2023-03-13T22:45:07.972Z,5.00
2023-03-13T22:49:10.171Z,5.13
2023-03-13T22:53:12.495Z,4.20
2023-03-13T22:57:14.681Z,5.78
2023-03-13T23:01:18.836Z,5.07
2023-03-13T23:05:21.425Z,4.53
2023-03-13T23:09:23.612Z,5.32
2023-03-13T23:13:25.717Z,5.22
2023-03-13T23:17:31.376Z,4.40
2023-03-13T23:21:33.563Z,4.35
2023-03-13T23:25:38.488Z,4.50
2023-03-13T23:29:40.940Z,4.63
2023-03-13T23:33:43.813Z,5.00
2023-03-13T23:37:53.299Z,4.95
2023-03-13T23:41:55.425Z,4.78
2023-03-13T23:45:57.504Z,4.10
2023-03-13T23:49:59.950Z,4.10
2023-03-13T23:54:02.175Z,4.10
2023-03-13T23:58:04.300Z,4.15
